Barbarossa — ZDFA4 — position and weather

sailwx.info

Track history (hours):
 
Tides and Currents Weather Stations Pressure Air Temp Water Temp Dewpoint Dewpoint Depression Visibility Wind Speed Wind Dir Waves Ship Positions

Barbarossa

Last reported at 2016-Sep-27 10:33 UTC. Time now 2016-Sep-27 13:48 UTC.
Position N 53°39' E 005°23'.

Length 83 m; draft 4.2 m.

Type: Cargo ship. MMSI: 236029000.

Date/timePositionNaut miles runAvg speedWind from/ knotsBaromVisibWave heightAir tempDewpointWater temp
2016-Sep-27 10:33N 53°39' E 005°23'10210.2
2016-Sep-27 00:33N 53°44' E 008°14'39 9.7
2016-Sep-26 20:33N 53°08' E 008°38'4 4.3
2016-Sep-26 19:33N 53°06' E 008°45'0 0.0
2016-Sep-26 15:31N 53°06' E 008°45'0 0.0
2016-Sep-26 13:34N 53°06' E 008°45'0 0.0
2016-Sep-26 11:33N 53°06' E 008°45'0 0.0
2016-Sep-26 08:32N 53°06' E 008°45'0 0.0
2016-Sep-26 02:32N 53°06' E 008°45'0 0.0
2016-Sep-26 01:32N 53°06' E 008°45'0 0.0
2016-Sep-26 00:31N 53°06' E 008°45'0 0.0
2016-Sep-25 21:33N 53°06' E 008°45'0 0.0
2016-Sep-25 17:31N 53°06' E 008°45'0 0.0
2016-Sep-25 16:31N 53°06' E 008°45'0 0.0
2016-Sep-25 15:33N 53°06' E 008°45'0 0.0
2016-Sep-25 14:33N 53°06' E 008°45'0 0.0
2016-Sep-25 12:32N 53°06' E 008°45'0 0.0
2016-Sep-25 11:32N 53°06' E 008°45'0 0.0
2016-Sep-25 10:31N 53°06' E 008°45'0 0.0
2016-Sep-25 09:31N 53°06' E 008°45'0 0.0
2016-Sep-25 07:33N 53°06' E 008°45'0 0.0
2016-Sep-25 04:32N 53°06' E 008°45'0 0.0
2016-Sep-25 00:33N 53°06' E 008°45'0 0.0
2016-Sep-24 22:32N 53°06' E 008°45'0 0.0
2016-Sep-24 21:32N 53°06' E 008°45'0 0.0
2016-Sep-24 19:31N 53°06' E 008°45'0 0.0
2016-Sep-24 18:33N 53°06' E 008°45'0 0.0
2016-Sep-24 17:33N 53°06' E 008°45'0 0.0
2016-Sep-24 16:32N 53°06' E 008°45'0 0.0
2016-Sep-24 14:32N 53°06' E 008°45'0 0.0
2016-Sep-24 12:31N 53°06' E 008°45'0 0.0
2016-Sep-24 10:33N 53°06' E 008°45'0 0.0
2016-Sep-24 09:33N 53°06' E 008°45'0 0.0
2016-Sep-24 03:34N 53°06' E 008°45'5 5.3
2016-Sep-24 02:33N 53°09' E 008°38'1110.5
2016-Sep-24 01:34N 53°18' E 008°29'1211.6
2016-Sep-24 00:33N 53°30' E 008°31'45 9.1
2016-Sep-23 19:33N 53°53' E 007°24'2110.7
2016-Sep-23 17:34N 53°47' E 006°49'1111.0
2016-Sep-23 16:33N 53°45' E 006°31'8 8.3
2016-Sep-23 15:33N 53°37' E 006°29'2010.1
2016-Sep-23 13:33N 53°25' E 006°56'11 1.5
2016-Sep-23 06:33N 53°20' E 007°12'0 0.0
2016-Sep-23 04:32N 53°20' E 007°12'0 0.0
2016-Sep-23 03:29N 53°20' E 007°12'0 0.0
2016-Sep-23 02:31N 53°20' E 007°12'0 0.0
2016-Sep-23 01:31N 53°20' E 007°12'0 0.0
2016-Sep-23 00:31N 53°20' E 007°12'0 0.0
2016-Sep-22 23:12N 53°20' E 007°12'0 0.0
2016-Sep-22 20:26N 53°20' E 007°12'0 0.0
2016-Sep-22 12:31N 53°20' E 007°12'1 0.1
2016-Sep-22 04:34N 53°20' E 007°10'7 7.3
2016-Sep-22 03:33N 53°22' E 006°58'3010.0
2016-Sep-22 00:33N 53°37' E 006°14'1211.6
2016-Sep-21 23:33N 53°36' E 005°55'1211.7
2016-Sep-21 22:33N 53°34' E 005°35'18310.8
2016-Sep-21 05:33N 51°24' E 002°03'2713.5
2016-Sep-21 03:33N 51°03' E 001°36'  
Track history (hours):
 
Tides and Currents Weather Stations Pressure Air Temp Water Temp Dewpoint Dewpoint Depression Visibility Wind Speed Wind Dir Waves Ship Positions

Barbarossa

Last reported at 2016-Sep-27 10:33 UTC. Time now 2016-Sep-27 13:48 UTC.
Position N 53°39' E 005°23'.

Length 83 m; draft 4.2 m.

Type: Cargo ship. MMSI: 236029000.

Date/timePositionNaut miles runAvg speedWind from/ knotsBaromVisibWave heightAir tempDewpointWater temp
2016-Sep-27 10:33N 53°39' E 005°23'10210.2
2016-Sep-27 00:33N 53°44' E 008°14'39 9.7
2016-Sep-26 20:33N 53°08' E 008°38'4 4.3
2016-Sep-26 19:33N 53°06' E 008°45'0 0.0
2016-Sep-26 15:31N 53°06' E 008°45'0 0.0
2016-Sep-26 13:34N 53°06' E 008°45'0 0.0
2016-Sep-26 11:33N 53°06' E 008°45'0 0.0
2016-Sep-26 08:32N 53°06' E 008°45'0 0.0
2016-Sep-26 02:32N 53°06' E 008°45'0 0.0
2016-Sep-26 01:32N 53°06' E 008°45'0 0.0
2016-Sep-26 00:31N 53°06' E 008°45'0 0.0
2016-Sep-25 21:33N 53°06' E 008°45'0 0.0
2016-Sep-25 17:31N 53°06' E 008°45'0 0.0
2016-Sep-25 16:31N 53°06' E 008°45'0 0.0
2016-Sep-25 15:33N 53°06' E 008°45'0 0.0
2016-Sep-25 14:33N 53°06' E 008°45'0 0.0
2016-Sep-25 12:32N 53°06' E 008°45'0 0.0
2016-Sep-25 11:32N 53°06' E 008°45'0 0.0
2016-Sep-25 10:31N 53°06' E 008°45'0 0.0
2016-Sep-25 09:31N 53°06' E 008°45'0 0.0
2016-Sep-25 07:33N 53°06' E 008°45'0 0.0
2016-Sep-25 04:32N 53°06' E 008°45'0 0.0
2016-Sep-25 00:33N 53°06' E 008°45'0 0.0
2016-Sep-24 22:32N 53°06' E 008°45'0 0.0
2016-Sep-24 21:32N 53°06' E 008°45'0 0.0
2016-Sep-24 19:31N 53°06' E 008°45'0 0.0
2016-Sep-24 18:33N 53°06' E 008°45'0 0.0
2016-Sep-24 17:33N 53°06' E 008°45'0 0.0
2016-Sep-24 16:32N 53°06' E 008°45'0 0.0
2016-Sep-24 14:32N 53°06' E 008°45'0 0.0
2016-Sep-24 12:31N 53°06' E 008°45'0 0.0
2016-Sep-24 10:33N 53°06' E 008°45'0 0.0
2016-Sep-24 09:33N 53°06' E 008°45'0 0.0
2016-Sep-24 03:34N 53°06' E 008°45'5 5.3
2016-Sep-24 02:33N 53°09' E 008°38'1110.5
2016-Sep-24 01:34N 53°18' E 008°29'1211.6
2016-Sep-24 00:33N 53°30' E 008°31'45 9.1
2016-Sep-23 19:33N 53°53' E 007°24'2110.7
2016-Sep-23 17:34N 53°47' E 006°49'1111.0
2016-Sep-23 16:33N 53°45' E 006°31'8 8.3
2016-Sep-23 15:33N 53°37' E 006°29'2010.1
2016-Sep-23 13:33N 53°25' E 006°56'11 1.5
2016-Sep-23 06:33N 53°20' E 007°12'0 0.0
2016-Sep-23 04:32N 53°20' E 007°12'0 0.0
2016-Sep-23 03:29N 53°20' E 007°12'0 0.0
2016-Sep-23 02:31N 53°20' E 007°12'0 0.0
2016-Sep-23 01:31N 53°20' E 007°12'0 0.0
2016-Sep-23 00:31N 53°20' E 007°12'0 0.0
2016-Sep-22 23:12N 53°20' E 007°12'0 0.0
2016-Sep-22 20:26N 53°20' E 007°12'0 0.0
2016-Sep-22 12:31N 53°20' E 007°12'1 0.1
2016-Sep-22 04:34N 53°20' E 007°10'7 7.3
2016-Sep-22 03:33N 53°22' E 006°58'3010.0
2016-Sep-22 00:33N 53°37' E 006°14'1211.6
2016-Sep-21 23:33N 53°36' E 005°55'1211.7
2016-Sep-21 22:33N 53°34' E 005°35'18310.8
2016-Sep-21 05:33N 51°24' E 002°03'2713.5
2016-Sep-21 03:33N 51°03' E 001°36'  

Dump ship's entire track history